Time;durP1;ratioP1;P1;durP2;ratioP2;P2;SDS_P1;SDS_P2;PMS_P1;PMS_P2;Temp;Humidity;BMP_temperature;BMP_pressure;BME280_temperature;BME280_humidity;BME280_pressure;Samples;Min_cycle;Max_cycle;Signal;HPM_P1;HPM_P2
2021/09/10 00:02:04;;;;;;;9.32;5.80;;;;;;;17.08;67.93;100348.66;5040250;28;20037;-75
2021/09/10 00:04:29;;;;;;;6.75;5.60;;;;;;;17.09;67.50;100350.38;5042326;28;20047;-77
2021/09/10 00:06:55;;;;;;;7.57;5.35;;;;;;;17.13;67.55;100344.94;5040959;28;20033;-77
2021/09/10 00:09:20;;;;;;;8.18;6.03;;;;;;;17.13;67.93;100345.81;5042033;28;20032;-76
2021/09/10 00:11:46;;;;;;;9.32;6.82;;;;;;;17.15;68.13;100351.97;5041222;28;20120;-77
2021/09/10 00:14:11;;;;;;;12.40;7.43;;;;;;;17.15;67.82;100351.09;5040826;28;20034;-77
2021/09/10 00:16:36;;;;;;;11.43;7.45;;;;;;;17.09;68.06;100346.84;5041416;28;20047;-76
2021/09/10 00:19:03;;;;;;;10.43;6.53;;;;;;;17.01;67.96;100346.25;5040466;28;20033;-76
2021/09/10 00:21:29;;;;;;;11.88;7.15;;;;;;;16.97;68.29;100345.47;5042403;28;20084;-76
2021/09/10 00:23:54;;;;;;;10.82;5.88;;;;;;;16.88;68.42;100339.63;5039344;28;20042;-76
2021/09/10 00:26:19;;;;;;;10.00;6.57;;;;;;;16.84;68.86;100345.03;5042834;28;20068;-76
2021/09/10 00:28:45;;;;;;;8.00;6.22;;;;;;;16.76;69.40;100356.88;5040718;28;20029;-76
2021/09/10 00:31:10;;;;;;;9.60;6.95;;;;;;;16.72;69.29;100355.25;5031325;28;20045;-76
2021/09/10 00:33:35;;;;;;;10.73;6.53;;;;;;;16.67;69.79;100358.06;5043410;28;20044;-76
2021/09/10 00:36:01;;;;;;;7.78;6.18;;;;;;;16.70;69.58;100357.09;5045537;28;20083;-76
2021/09/10 00:38:26;;;;;;;6.88;6.10;;;;;;;16.60;70.43;100353.84;5050036;28;20029;-77
2021/09/10 00:40:52;;;;;;;7.90;5.43;;;;;;;16.55;70.39;100355.81;5046060;28;20079;-76
2021/09/10 00:43:17;;;;;;;9.40;6.35;;;;;;;16.52;70.72;100361.25;5040381;28;20037;-76
2021/09/10 00:45:44;;;;;;;12.23;6.18;;;;;;;16.46;71.17;100359.66;5041595;28;20044;-76
2021/09/10 00:48:11;;;;;;;9.30;6.20;;;;;;;16.41;71.15;100366.91;5042858;28;20041;-76
2021/09/10 00:50:37;;;;;;;9.20;5.90;;;;;;;16.43;70.63;100362.41;5044487;28;20041;-76
2021/09/10 00:53:03;;;;;;;10.32;6.65;;;;;;;16.40;70.92;100366.06;5049247;28;20115;-76
2021/09/10 00:55:29;;;;;;;9.63;5.43;;;;;;;16.40;71.41;100367.81;5048953;28;20698;-77
2021/09/10 00:57:54;;;;;;;9.75;6.45;;;;;;;16.31;71.76;100365.47;5045950;28;20041;-76
2021/09/10 01:00:20;;;;;;;9.02;6.47;;;;;;;16.32;71.60;100360.13;5057498;28;20044;-76
2021/09/10 01:02:46;;;;;;;6.78;5.20;;;;;;;16.36;71.43;100364.41;5046411;28;20116;-76
2021/09/10 01:05:11;;;;;;;9.80;6.28;;;;;;;16.37;71.19;100354.63;5046174;28;20033;-76
2021/09/10 01:07:37;;;;;;;7.53;5.50;;;;;;;16.38;71.43;100362.56;5053565;28;20111;-76
2021/09/10 01:10:06;;;;;;;9.13;6.43;;;;;;;16.39;71.36;100358.09;5046781;28;20487;-77
2021/09/10 01:12:31;;;;;;;8.00;5.97;;;;;;;16.38;71.36;100356.38;5043562;28;20487;-75
2021/09/10 01:14:57;;;;;;;9.32;5.57;;;;;;;16.34;71.99;100360.91;5044265;28;20045;-76
2021/09/10 01:17:22;;;;;;;8.75;5.85;;;;;;;16.25;73.07;100355.03;5044096;28;20033;-76
2021/09/10 01:19:47;;;;;;;8.80;6.10;;;;;;;16.21;73.19;100357.78;5043454;28;20041;-76
2021/09/10 01:22:13;;;;;;;7.60;5.75;;;;;;;16.25;72.86;100371.00;5043391;28;20033;-77
2021/09/10 01:25:05;;;;;;;8.00;6.05;;;;;;;16.20;73.67;100364.03;5045076;28;20037;-76
2021/09/10 01:27:31;;;;;;;6.65;5.13;;;;;;;16.24;72.48;100359.47;5032767;28;20391;-77
2021/09/10 01:29:59;;;;;;;8.88;6.00;;;;;;;16.25;72.52;100363.88;5042199;28;20034;-77
2021/09/10 01:32:25;;;;;;;7.28;5.63;;;;;;;16.14;72.93;100376.69;5046063;28;20036;-77
2021/09/10 01:34:51;;;;;;;10.02;6.30;;;;;;;16.15;72.88;100368.63;5056433;28;20032;-77
2021/09/10 01:37:17;;;;;;;9.13;5.63;;;;;;;16.11;73.23;100363.44;5047250;28;20037;-76
2021/09/10 01:39:42;;;;;;;9.55;5.93;;;;;;;16.10;72.71;100364.38;5045063;28;20040;-76
2021/09/10 01:42:07;;;;;;;7.15;5.78;;;;;;;16.16;72.14;100367.69;5049649;28;20079;-77
2021/09/10 01:44:33;;;;;;;7.07;5.55;;;;;;;16.22;72.25;100369.31;5043780;28;20045;-76
2021/09/10 01:46:59;;;;;;;7.85;6.18;;;;;;;16.24;72.14;100363.94;5025654;28;20491;-76
2021/09/10 01:49:24;;;;;;;9.30;5.88;;;;;;;16.17;72.18;100372.13;5043331;28;20040;-77
2021/09/10 01:51:50;;;;;;;8.25;5.90;;;;;;;16.14;72.07;100364.25;5043060;28;20032;-77
2021/09/10 01:54:15;;;;;;;7.50;5.28;;;;;;;16.10;71.97;100367.91;5042610;28;20048;-76
2021/09/10 01:56:40;;;;;;;8.02;5.90;;;;;;;15.98;73.79;100363.84;5044782;28;20499;-77
2021/09/10 01:59:06;;;;;;;8.55;5.57;;;;;;;15.96;73.06;100372.81;5044071;28;20049;-77
2021/09/10 02:01:35;;;;;;;8.38;5.50;;;;;;;15.98;72.95;100374.50;5029952;28;20029;-77
2021/09/10 02:04:00;;;;;;;6.80;5.25;;;;;;;15.97;73.22;100377.19;5045366;28;20040;-76
2021/09/10 02:06:26;;;;;;;9.00;6.00;;;;;;;15.98;73.22;100378.91;5045274;28;20411;-77
2021/09/10 02:08:51;;;;;;;7.05;5.53;;;;;;;16.01;72.60;100384.19;5040533;28;20180;-77
2021/09/10 02:11:17;;;;;;;8.40;6.22;;;;;;;16.03;72.14;100377.00;5048035;28;20056;-75
2021/09/10 02:13:42;;;;;;;6.35;5.20;;;;;;;16.02;72.55;100375.25;5041092;28;20036;-77
2021/09/10 02:16:09;;;;;;;7.63;5.47;;;;;;;15.98;72.40;100373.59;5042793;28;20102;-77
2021/09/10 02:18:34;;;;;;;6.53;5.38;;;;;;;15.93;73.10;100364.91;5034101;28;20033;-77
2021/09/10 02:21:00;;;;;;;9.35;6.70;;;;;;;15.96;72.92;100370.13;5047930;28;20040;-77
2021/09/10 02:23:25;;;;;;;9.48;7.60;;;;;;;15.88;73.16;100362.38;5035940;28;20033;-77
2021/09/10 02:25:51;;;;;;;8.10;7.03;;;;;;;15.87;73.17;100362.41;5035634;28;20057;-77
2021/09/10 02:28:16;;;;;;;8.35;6.70;;;;;;;15.83;73.94;100368.78;5042225;28;20037;-77
2021/09/10 02:30:41;;;;;;;7.55;5.97;;;;;;;15.80;74.10;100363.50;5044577;28;20060;-77
2021/09/10 02:33:07;;;;;;;9.63;6.13;;;;;;;15.78;73.96;100368.91;5040894;28;20045;-77
2021/09/10 02:35:32;;;;;;;7.88;5.97;;;;;;;15.75;73.55;100361.88;5044228;28;20055;-77
2021/09/10 02:37:57;;;;;;;9.55;5.57;;;;;;;15.75;73.15;100364.53;5041369;28;20376;-76
2021/09/10 02:40:23;;;;;;;7.80;5.32;;;;;;;15.70;73.48;100353.16;5043981;28;20041;-77
2021/09/10 02:42:48;;;;;;;8.88;5.80;;;;;;;15.65;73.57;100362.19;5041524;28;20048;-77
2021/09/10 02:45:14;;;;;;;7.10;5.78;;;;;;;15.62;74.16;100368.47;5043185;28;20042;-77
2021/09/10 02:47:39;;;;;;;11.15;6.03;;;;;;;15.57;74.33;100371.25;5042389;28;20040;-77
2021/09/10 02:50:05;;;;;;;9.25;5.20;;;;;;;15.50;74.21;100379.44;5042150;28;20060;-77
2021/09/10 02:52:33;;;;;;;7.40;4.85;;;;;;;15.50;74.56;100390.09;5042703;28;20128;-77
2021/09/10 02:55:00;;;;;;;7.20;5.75;;;;;;;15.50;74.54;100379.44;5041580;28;20033;-77
2021/09/10 02:57:27;;;;;;;7.68;5.43;;;;;;;15.53;74.20;100379.34;5042745;28;20036;-77
2021/09/10 02:59:53;;;;;;;7.45;5.63;;;;;;;15.49;74.47;100381.25;5032471;28;20120;-77
2021/09/10 03:02:19;;;;;;;9.88;6.57;;;;;;;15.47;74.31;100371.56;5043404;28;20040;-77
2021/09/10 03:04:47;;;;;;;8.07;5.55;;;;;;;15.42;74.79;100376.13;5040522;28;20067;-77
2021/09/10 03:07:13;;;;;;;11.05;5.72;;;;;;;15.43;74.55;100377.88;5043576;28;20037;-76
2021/09/10 03:09:38;;;;;;;8.23;6.25;;;;;;;15.45;74.49;100368.94;5039884;28;20145;-76
2021/09/10 03:12:04;;;;;;;7.93;5.60;;;;;;;15.46;74.28;100368.03;5043764;28;20067;-77
2021/09/10 03:14:32;;;;;;;8.23;5.30;;;;;;;15.47;74.43;100375.09;5021613;28;20120;-77
2021/09/10 03:16:58;;;;;;;8.77;6.60;;;;;;;15.47;74.43;100371.56;5047309;28;20403;-77
2021/09/10 03:19:25;;;;;;;8.82;5.85;;;;;;;15.48;74.39;100379.50;5047450;28;20033;-77
2021/09/10 03:21:50;;;;;;;9.98;5.45;;;;;;;15.40;74.69;100369.97;5043662;28;20040;-76
2021/09/10 03:24:16;;;;;;;9.70;6.18;;;;;;;15.36;74.37;100371.88;5040654;28;20503;-76
2021/09/10 03:26:41;;;;;;;8.98;5.80;;;;;;;15.31;74.36;100364.00;5041962;28;20476;-76
2021/09/10 03:29:07;;;;;;;9.23;6.57;;;;;;;15.26;74.79;100365.06;5023525;28;20040;-76
2021/09/10 03:31:32;;;;;;;7.82;6.47;;;;;;;15.30;74.85;100364.03;5031979;28;20037;-76
2021/09/10 03:33:58;;;;;;;10.07;6.25;;;;;;;15.33;74.90;100369.31;5041361;28;20028;-77
2021/09/10 03:36:23;;;;;;;7.35;5.82;;;;;;;15.33;74.67;100364.00;5040480;28;20487;-77
2021/09/10 03:38:48;;;;;;;12.50;8.75;;;;;;;15.34;74.27;100365.72;5042559;28;20442;-76
2021/09/10 03:41:14;;;;;;;10.00;6.43;;;;;;;15.30;74.28;100359.63;5043693;28;20474;-76
2021/09/10 03:43:42;;;;;;;8.77;6.63;;;;;;;15.27;74.28;100358.81;5039473;28;20492;-77
2021/09/10 03:46:07;;;;;;;7.68;5.70;;;;;;;15.21;74.77;100365.19;5043828;28;20041;-77
2021/09/10 03:48:32;;;;;;;8.95;5.82;;;;;;;15.19;75.22;100374.13;5041637;28;20048;-77
2021/09/10 03:50:58;;;;;;;8.75;5.78;;;;;;;15.06;76.25;100371.81;5041235;28;20068;-77
2021/09/10 03:53:29;;;;;;;7.63;5.25;;;;;;;15.00;76.30;100371.97;5040615;28;20045;-77
2021/09/10 03:55:55;;;;;;;10.85;5.65;;;;;;;14.99;76.46;100369.38;5047599;28;20639;-77
2021/09/10 03:58:20;;;;;;;8.20;6.07;;;;;;;14.99;76.36;100369.38;5042704;28;20034;-77
2021/09/10 04:00:46;;;;;;;11.00;5.25;;;;;;;15.04;76.18;100378.94;5042368;28;20564;-77
2021/09/10 04:03:11;;;;;;;7.55;5.70;;;;;;;15.05;76.43;100379.81;5040402;28;20491;-77
2021/09/10 04:05:37;;;;;;;10.63;6.88;;;;;;;15.02;75.97;100380.78;5041459;28;20108;-77
2021/09/10 04:08:04;;;;;;;8.32;5.43;;;;;;;15.05;76.31;100385.13;5041141;28;20028;-77
2021/09/10 04:10:29;;;;;;;8.23;6.00;;;;;;;15.08;76.08;100379.72;5040660;28;20109;-76
2021/09/10 04:12:55;;;;;;;8.65;6.10;;;;;;;15.11;75.59;100376.97;5040061;28;20380;-77
2021/09/10 04:15:21;;;;;;;8.88;6.15;;;;;;;15.10;75.26;100377.91;5039833;28;20480;-77
2021/09/10 04:17:46;;;;;;;9.68;5.45;;;;;;;15.15;75.38;100383.97;5041879;28;20033;-77
2021/09/10 04:20:13;;;;;;;8.18;5.63;;;;;;;15.19;75.20;100382.09;5027796;28;20164;-77
2021/09/10 04:22:41;;;;;;;8.52;6.63;;;;;;;15.23;74.99;100379.31;5048611;28;20065;-75
2021/09/10 04:25:07;;;;;;;10.43;6.25;;;;;;;15.18;75.27;100383.88;5054872;28;20040;-77
2021/09/10 04:27:32;;;;;;;9.70;6.47;;;;;;;15.15;75.40;100381.31;5059879;28;20036;-78
2021/09/10 04:29:58;;;;;;;7.22;5.38;;;;;;;15.11;75.34;100385.81;5059356;28;20053;-78
2021/09/10 04:32:24;;;;;;;8.35;5.03;;;;;;;15.20;74.74;100384.72;5043168;28;20072;-78
2021/09/10 04:34:49;;;;;;;9.27;6.82;;;;;;;15.32;74.62;100389.69;5057269;28;20032;-77
2021/09/10 04:37:15;;;;;;;13.05;8.50;;;;;;;15.40;74.20;100389.47;5048341;28;20474;-76
2021/09/10 04:39:40;;;;;;;10.45;8.48;;;;;;;15.47;73.75;100383.06;5031343;28;20557;-76
2021/09/10 04:42:05;;;;;;;7.80;5.75;;;;;;;15.50;74.17;100388.28;5048429;28;20071;-77
2021/09/10 04:44:31;;;;;;;8.30;7.13;;;;;;;15.52;73.38;100386.47;5049800;28;20069;-75
2021/09/10 04:46:56;;;;;;;10.20;7.15;;;;;;;15.53;73.57;100397.97;5049388;28;20091;-77
2021/09/10 04:49:21;;;;;;;8.38;5.90;;;;;;;15.56;73.51;100382.81;5050014;28;20052;-76
2021/09/10 04:51:47;;;;;;;6.95;5.47;;;;;;;15.57;74.23;100404.97;5049469;28;20075;-77
2021/09/10 04:54:15;;;;;;;9.30;5.45;;;;;;;15.54;74.21;100402.38;5017752;28;996016;-77
2021/09/10 04:56:41;;;;;;;7.68;5.30;;;;;;;15.55;73.85;100393.50;5049922;28;20029;-77
2021/09/10 04:59:06;;;;;;;10.10;6.05;;;;;;;15.62;73.57;100399.50;5046761;28;20470;-77
2021/09/10 05:01:32;;;;;;;7.85;6.43;;;;;;;15.70;73.42;100395.72;5049869;28;20116;-77
2021/09/10 05:03:58;;;;;;;10.70;7.78;;;;;;;15.77;73.21;100397.31;5056850;28;20037;-77
2021/09/10 05:06:23;;;;;;;11.75;7.20;;;;;;;15.77;73.45;100397.31;5058799;28;20417;-77
2021/09/10 05:08:48;;;;;;;9.48;6.97;;;;;;;15.82;73.17;100394.47;5060157;28;20395;-77
2021/09/10 05:11:13;;;;;;;8.43;6.07;;;;;;;15.77;73.64;100392.00;5052535;28;20056;-77
2021/09/10 05:13:39;;;;;;;14.43;6.55;;;;;;;15.86;73.45;100397.94;5057904;28;20114;-77
2021/09/10 05:16:04;;;;;;;10.35;6.10;;;;;;;15.92;73.48;100395.09;5030096;28;20134;-77
2021/09/10 05:18:30;;;;;;;9.57;6.65;;;;;;;15.99;73.65;100399.31;5043314;28;20471;-77
2021/09/10 05:20:55;;;;;;;12.80;7.75;;;;;;;16.10;73.48;100404.31;5050453;28;20049;-76
2021/09/10 05:23:20;;;;;;;9.40;6.22;;;;;;;16.14;72.85;100405.97;5050089;28;20050;-77
2021/09/10 05:25:45;;;;;;;9.13;5.68;;;;;;;16.21;72.50;100405.69;5046375;28;20064;-77
2021/09/10 05:28:11;;;;;;;9.00;5.63;;;;;;;16.35;72.10;100404.41;5025139;28;20045;-78
2021/09/10 05:30:36;;;;;;;7.57;6.60;;;;;;;16.48;71.55;100405.75;5053588;28;20040;-78
2021/09/10 05:33:01;;;;;;;9.05;6.53;;;;;;;16.62;71.17;100414.16;5036061;28;20037;-78
2021/09/10 05:35:27;;;;;;;9.75;5.35;;;;;;;16.72;70.44;100408.53;5033933;28;20040;-78
2021/09/10 05:37:52;;;;;;;10.32;5.45;;;;;;;16.80;70.00;100414.53;5051884;28;20036;-77
2021/09/10 05:40:17;;;;;;;9.63;6.97;;;;;;;16.86;70.27;100411.63;5055722;28;20047;-76
2021/09/10 05:42:43;;;;;;;10.82;7.63;;;;;;;17.01;69.85;100411.13;5047817;28;20039;-78
2021/09/10 05:45:08;;;;;;;11.73;8.07;;;;;;;17.16;69.79;100419.47;5044780;28;20415;-77
2021/09/10 05:47:34;;;;;;;10.70;8.07;;;;;;;17.29;69.10;100415.47;5042848;28;20483;-77
2021/09/10 05:49:59;;;;;;;9.13;6.43;;;;;;;17.42;69.43;100422.13;5049747;28;20029;-77
2021/09/10 05:52:24;;;;;;;14.88;8.60;;;;;;;17.50;69.10;100420.03;5051600;28;20461;-77
2021/09/10 05:54:50;;;;;;;9.00;6.05;;;;;;;17.64;68.78;100426.66;5050706;28;20138;-77
2021/09/10 05:57:15;;;;;;;22.23;12.35;;;;;;;17.73;68.86;100431.66;5053111;28;20499;-77
2021/09/10 05:59:40;;;;;;;12.57;7.60;;;;;;;17.87;68.38;100425.84;5051054;28;20468;-78
2021/09/10 06:02:06;;;;;;;9.93;6.85;;;;;;;18.00;67.90;100426.22;5048608;28;20033;-77
2021/09/10 06:04:31;;;;;;;9.82;7.03;;;;;;;18.13;67.90;100422.16;5047751;28;20059;-78
2021/09/10 06:06:57;;;;;;;10.98;7.47;;;;;;;18.28;67.51;100428.69;5043902;28;20094;-78
2021/09/10 06:09:22;;;;;;;9.93;6.82;;;;;;;18.42;67.15;100430.81;5043335;28;20143;-77
2021/09/10 06:11:47;;;;;;;8.48;6.40;;;;;;;18.52;67.24;100437.53;5048492;28;20152;-79
2021/09/10 06:14:12;;;;;;;10.10;6.97;;;;;;;18.64;67.44;100437.03;5048367;28;20059;-80
2021/09/10 06:16:38;;;;;;;9.88;6.70;;;;;;;18.74;66.74;100434.88;5050222;28;20034;-80
2021/09/10 06:19:06;;;;;;;10.93;8.32;;;;;;;18.88;66.76;100439.66;5052957;28;20040;-79
2021/09/10 06:21:32;;;;;;;8.90;7.70;;;;;;;18.99;66.23;100429.38;5054109;28;20439;-80
2021/09/10 06:23:57;;;;;;;12.80;7.68;;;;;;;19.08;66.26;100439.69;5033309;28;20064;-79
2021/09/10 06:26:24;;;;;;;8.43;6.10;;;;;;;19.19;66.01;100442.75;5023161;28;20491;-79
2021/09/10 06:28:49;;;;;;;11.05;6.72;;;;;;;19.32;65.63;100436.88;5045532;28;20554;-80
2021/09/10 06:31:15;;;;;;;7.75;6.13;;;;;;;19.41;65.13;100439.13;5037230;28;20040;-79
2021/09/10 06:33:40;;;;;;;8.68;7.38;;;;;;;19.45;65.80;100443.44;5047652;28;20404;-79
2021/09/10 06:36:05;;;;;;;14.93;7.15;;;;;;;19.53;65.90;100443.97;5046981;28;20407;-79
2021/09/10 06:38:31;;;;;;;9.30;6.43;;;;;;;19.66;65.82;100450.53;5036794;28;20495;-78
2021/09/10 06:40:56;;;;;;;10.20;5.93;;;;;;;19.77;64.96;100454.53;5036349;28;20051;-79
2021/09/10 06:43:21;;;;;;;11.57;6.63;;;;;;;19.88;65.26;100460.25;5042858;28;20038;-79
2021/09/10 06:45:47;;;;;;;10.65;6.45;;;;;;;19.92;65.58;100454.69;5044333;28;20044;-79
2021/09/10 06:48:13;;;;;;;10.60;7.28;;;;;;;19.98;65.58;100458.91;5043511;28;20033;-78
2021/09/10 06:50:38;;;;;;;9.27;7.40;;;;;;;20.06;65.03;100456.72;5047004;28;20037;-78
2021/09/10 06:53:03;;;;;;;13.15;6.72;;;;;;;20.06;65.38;100448.69;5026971;28;20043;-79
2021/09/10 06:55:29;;;;;;;8.80;5.82;;;;;;;20.14;65.21;100456.38;5049571;28;20037;-79
2021/09/10 06:57:54;;;;;;;12.40;6.15;;;;;;;20.22;64.74;100448.84;5041833;28;20037;-79
2021/09/10 07:00:20;;;;;;;11.98;8.15;;;;;;;20.36;64.47;100456.25;5044489;28;20044;-79
2021/09/10 07:02:45;;;;;;;10.93;7.00;;;;;;;20.45;64.87;100458.47;5047346;28;20164;-78
2021/09/10 07:05:14;;;;;;;9.68;6.68;;;;;;;20.48;64.29;100460.13;5034132;28;20406;-79
2021/09/10 07:07:39;;;;;;;11.05;6.35;;;;;;;20.55;64.08;100459.78;5049974;28;20051;-79
2021/09/10 07:10:05;;;;;;;9.85;6.95;;;;;;;20.66;64.31;100463.78;5039334;28;20037;-79
2021/09/10 07:12:31;;;;;;;11.02;6.53;;;;;;;20.83;64.04;100471.84;5052467;28;20116;-79
2021/09/10 07:14:56;;;;;;;12.57;6.28;;;;;;;20.94;63.04;100464.13;5055523;28;20087;-79
2021/09/10 07:17:22;;;;;;;8.70;6.07;;;;;;;21.09;63.70;100456.25;5051197;28;20068;-79
2021/09/10 07:19:50;;;;;;;10.10;6.82;;;;;;;21.24;63.22;100467.06;5045549;28;20035;-79
2021/09/10 07:22:16;;;;;;;12.25;8.50;;;;;;;21.34;62.91;100470.16;5044176;28;20033;-79
2021/09/10 07:24:41;;;;;;;10.10;7.63;;;;;;;21.35;62.84;100469.22;5049225;28;20043;-79
2021/09/10 07:27:07;;;;;;;10.02;7.68;;;;;;;21.47;62.71;100466.88;5048726;28;20029;-79
2021/09/10 07:29:32;;;;;;;11.27;6.65;;;;;;;21.58;62.75;100472.53;5049907;28;20063;-79
2021/09/10 07:31:58;;;;;;;14.27;6.32;;;;;;;21.68;62.86;100471.09;5034263;28;20029;-78
2021/09/10 07:34:23;;;;;;;18.42;7.65;;;;;;;21.78;63.15;100468.78;5053821;28;20096;-79
2021/09/10 07:36:49;;;;;;;9.38;7.20;;;;;;;21.75;63.40;100472.50;5051041;28;20033;-79
2021/09/10 07:39:19;;;;;;;8.02;6.15;;;;;;;21.84;63.33;100474.69;5048877;28;20045;-79
2021/09/10 07:41:47;;;;;;;10.98;6.93;;;;;;;21.91;62.91;100477.94;5049315;28;20036;-79
2021/09/10 07:44:14;;;;;;;9.18;6.60;;;;;;;22.02;63.33;100470.13;5035974;28;20048;-78
2021/09/10 07:46:40;;;;;;;11.35;7.63;;;;;;;22.17;62.63;100471.13;5055587;28;20060;-79
2021/09/10 07:49:07;;;;;;;9.40;7.18;;;;;;;22.16;62.22;100466.69;5054746;28;20033;-79
2021/09/10 07:51:32;;;;;;;10.90;8.35;;;;;;;22.08;62.37;100469.78;5039363;28;20525;-79
2021/09/10 07:53:57;;;;;;;16.40;11.43;;;;;;;22.14;62.95;100471.31;5051677;28;20132;-79
2021/09/10 07:56:23;;;;;;;13.52;10.15;;;;;;;22.29;62.72;100473.13;5052899;28;20106;-79
2021/09/10 07:58:48;;;;;;;10.52;8.18;;;;;;;22.29;62.85;100477.66;5050448;28;20048;-79
2021/09/10 08:01:13;;;;;;;12.68;7.68;;;;;;;22.44;62.25;100482.19;5053216;28;20033;-79
2021/09/10 08:03:38;;;;;;;10.65;7.75;;;;;;;22.51;62.08;100477.34;5052016;28;20036;-79
2021/09/10 08:06:04;;;;;;;10.85;7.32;;;;;;;22.53;61.70;100480.78;5046334;28;20041;-80
2021/09/10 08:08:29;;;;;;;9.77;7.28;;;;;;;22.54;61.93;100487.91;5048801;28;20041;-79
2021/09/10 08:10:54;;;;;;;11.85;7.65;;;;;;;22.61;62.23;100489.31;5048537;28;20037;-79
2021/09/10 08:13:20;;;;;;;11.88;6.63;;;;;;;22.75;61.89;100486.69;5057509;28;20044;-80
2021/09/10 08:15:45;;;;;;;8.70;7.28;;;;;;;22.88;61.77;100494.91;5056415;28;20037;-80
2021/09/10 08:18:11;;;;;;;11.38;7.63;;;;;;;22.91;62.05;100491.19;5054424;28;20027;-79
2021/09/10 08:20:36;;;;;;;9.80;7.05;;;;;;;23.05;62.04;100499.34;5056769;28;20041;-80
2021/09/10 08:23:01;;;;;;;16.15;11.77;;;;;;;23.19;61.99;100501.25;5053126;28;20044;-80
2021/09/10 08:25:27;;;;;;;16.05;10.10;;;;;;;23.23;61.65;100500.09;5048182;28;20037;-79
2021/09/10 08:27:52;;;;;;;9.73;7.63;;;;;;;23.30;61.73;100501.47;5048507;28;20048;-79
2021/09/10 08:30:17;;;;;;;10.52;8.70;;;;;;;23.40;61.65;100501.78;5044747;28;20029;-80
2021/09/10 08:32:43;;;;;;;10.43;6.97;;;;;;;23.48;61.87;100502.19;5047937;28;20052;-79
2021/09/10 08:35:13;;;;;;;9.95;7.55;;;;;;;23.51;61.60;100493.06;5027130;28;20037;-80
2021/09/10 08:37:38;;;;;;;12.50;10.40;;;;;;;23.62;61.45;100499.50;5056513;28;20040;-80
2021/09/10 08:40:04;;;;;;;11.57;10.20;;;;;;;23.69;61.31;100501.84;5057639;28;20040;-80
2021/09/10 08:42:29;;;;;;;12.10;7.32;;;;;;;23.78;61.04;100487.81;5056002;28;20047;-80
2021/09/10 08:44:55;;;;;;;14.25;9.63;;;;;;;23.72;61.58;100496.28;5057297;28;20036;-79
2021/09/10 08:47:23;;;;;;;10.38;7.45;;;;;;;23.94;60.63;100498.50;5059502;28;20052;-79
2021/09/10 08:49:48;;;;;;;14.88;10.73;;;;;;;24.06;60.40;100492.38;5058414;28;20041;-79
2021/09/10 08:52:14;;;;;;;12.02;9.65;;;;;;;24.11;60.45;100492.94;5037245;28;20095;-79
2021/09/10 08:54:40;;;;;;;14.60;11.80;;;;;;;24.15;60.30;100491.75;5061349;28;20037;-80
2021/09/10 08:57:05;;;;;;;11.05;9.52;;;;;;;24.15;60.50;100482.81;5056494;28;20039;-79
2021/09/10 08:59:30;;;;;;;11.40;8.45;;;;;;;24.30;60.59;100481.84;5055392;28;20036;-80
2021/09/10 09:01:58;;;;;;;10.73;7.85;;;;;;;24.45;60.77;100488.13;5057819;28;20394;-80
2021/09/10 09:04:31;;;;;;;11.70;8.32;;;;;;;24.60;60.38;100491.63;5058396;28;20044;-80
2021/09/10 09:06:56;;;;;;;13.45;8.95;;;;;;;24.75;60.24;100482.53;5035643;28;20037;-80
2021/09/10 09:09:48;;;;;;;12.27;10.07;;;;;;;24.78;60.74;100479.63;5046513;28;20040;-80
2021/09/10 09:12:30;;;;;;;15.38;13.02;;;;;;;24.85;60.14;100483.66;5038999;28;20106;-80
2021/09/10 09:14:57;;;;;;;;;;;;;;;24.87;60.13;100484.44;5033842;28;20194;-79
2021/09/10 09:17:33;;;;;;;13.80;10.20;;;;;;;24.97;60.43;100483.81;5050714;28;19913;-80
2021/09/10 09:20:25;;;;;;;10.73;9.13;;;;;;;25.05;60.61;100482.34;5044503;28;20119;-80
2021/09/10 09:22:51;;;;;;;10.07;7.55;;;;;;;25.13;59.02;100482.69;5053899;28;20092;-80
2021/09/10 09:25:16;;;;;;;9.05;6.40;;;;;;;25.26;59.80;100479.19;5053675;28;20041;-80
2021/09/10 09:27:41;;;;;;;7.82;6.53;;;;;;;25.35;58.74;100478.53;5045523;28;20472;-80
2021/09/10 09:30:07;;;;;;;8.82;5.82;;;;;;;25.44;58.58;100480.63;5054388;28;20047;-80
2021/09/10 09:32:46;;;;;;;9.15;6.90;;;;;;;25.43;59.00;100469.91;5056593;28;20064;-78
2021/09/10 09:35:12;;;;;;;8.35;5.97;;;;;;;25.62;58.80;100469.50;5053977;28;20060;-79
2021/09/10 09:37:37;;;;;;;11.32;9.45;;;;;;;25.70;58.54;100483.31;5029341;28;20043;-78
2021/09/10 09:40:03;;;;;;;8.43;6.82;;;;;;;25.76;57.42;100475.66;5060659;28;20033;-79
2021/09/10 09:42:31;;;;;;;8.73;7.03;;;;;;;25.88;56.87;100475.78;5059375;28;20418;-80
2021/09/10 09:45:10;;;;;;;10.40;7.78;;;;;;;25.96;57.29;100470.69;5024312;28;20025;-79
2021/09/10 09:47:36;;;;;;;11.70;8.88;;;;;;;26.04;57.27;100476.41;5047448;28;20036;-80
2021/09/10 09:50:07;;;;;;;7.38;6.43;;;;;;;26.09;56.98;100463.44;5051834;28;20033;-80
2021/09/10 09:52:32;;;;;;;12.20;6.43;;;;;;;26.16;56.83;100474.69;5054637;28;20033;-79
2021/09/10 09:54:58;;;;;;;8.73;6.25;;;;;;;26.30;56.65;100471.84;5056681;28;20044;-80
2021/09/10 09:57:24;;;;;;;10.07;5.75;;;;;;;26.35;56.20;100475.06;5061217;28;20029;-80
2021/09/10 09:59:51;;;;;;;8.27;5.80;;;;;;;26.40;56.33;100472.03;5054278;28;20491;-80
2021/09/10 10:02:17;;;;;;;9.05;7.38;;;;;;;26.51;55.87;100474.81;5055770;28;20509;-80
2021/09/10 10:04:42;;;;;;;10.43;7.63;;;;;;;26.63;55.34;100467.66;5056704;28;20079;-80
2021/09/10 10:07:10;;;;;;;10.88;7.13;;;;;;;26.67;54.60;100480.88;5061716;28;20045;-80
2021/09/10 10:09:37;;;;;;;7.68;5.90;;;;;;;26.93;54.00;100480.75;5062670;28;20055;-80
2021/09/10 10:12:03;;;;;;;7.90;6.32;;;;;;;27.10;54.71;100471.34;5058486;28;20033;-80
2021/09/10 10:14:37;;;;;;;10.75;8.43;;;;;;;27.18;53.96;100477.06;5057839;28;20328;-80
2021/09/10 10:17:03;;;;;;;8.60;5.88;;;;;;;27.52;53.20;100474.47;5055228;28;20036;-80
2021/09/10 10:19:36;;;;;;;7.40;5.97;;;;;;;27.70;53.30;100470.31;5041874;28;20112;-79
2021/09/10 10:22:10;;;;;;;7.95;5.20;;;;;;;27.99;51.90;100480.72;5056181;28;20095;-80
2021/09/10 10:24:40;;;;;;;9.82;5.10;;;;;;;27.99;51.57;100477.16;5058590;28;20242;-79
2021/09/10 10:27:41;;;;;;;7.82;4.88;;;;;;;28.10;50.34;100483.44;5038781;28;20029;-79
2021/09/10 10:30:17;;;;;;;9.13;6.10;;;;;;;27.84;51.39;100474.66;5054881;28;20029;-80
2021/09/10 10:32:47;;;;;;;6.55;5.65;;;;;;;27.92;51.58;100474.91;5039753;28;20063;-80
2021/09/10 10:35:13;;;;;;;8.30;5.05;;;;;;;27.99;51.51;100469.00;5056352;28;20036;-80
2021/09/10 10:37:46;;;;;;;5.80;4.72;;;;;;;28.19;51.47;100462.81;5057556;28;20056;-80
2021/09/10 10:40:42;;;;;;;10.02;5.55;;;;;;;28.31;51.50;100469.97;5027340;28;20033;-80
2021/09/10 10:43:20;;;;;;;8.35;6.47;;;;;;;28.42;51.11;100471.81;5054167;28;20041;-79
2021/09/10 10:45:45;;;;;;;7.68;6.63;;;;;;;28.53;51.05;100466.41;5054989;28;20037;-80
2021/09/10 10:48:29;;;;;;;12.30;7.15;;;;;;;28.52;49.83;100455.66;5054419;28;20043;-80
2021/09/10 10:50:56;;;;;;;7.32;5.45;;;;;;;28.84;49.13;100464.69;5058688;28;20033;-79
2021/09/10 10:53:21;;;;;;;7.78;5.03;;;;;;;28.87;48.80;100462.72;5053669;28;20056;-79
2021/09/10 10:55:47;;;;;;;5.47;4.30;;;;;;;28.78;48.52;100467.06;5039627;28;20442;-80
2021/09/10 10:58:27;;;;;;;8.95;4.40;;;;;;;28.82;47.64;100463.97;5034482;28;20065;-80
2021/09/10 11:00:58;;;;;;;6.68;3.83;;;;;;;28.51;48.27;100472.97;5055258;28;20060;-80
2021/09/10 11:03:24;;;;;;;5.78;4.10;;;;;;;28.33;49.96;100464.44;5055562;28;20037;-80
2021/09/10 11:05:51;;;;;;;8.90;5.63;;;;;;;28.52;48.64;100463.81;5037061;28;20121;-79
2021/09/10 11:08:36;;;;;;;7.20;5.07;;;;;;;28.60;48.08;100462.19;5051464;28;20159;-80
2021/09/10 11:11:03;;;;;;;4.82;3.78;;;;;;;28.78;48.17;100459.78;5052213;28;20115;-81
2021/09/10 11:13:29;;;;;;;6.93;4.18;;;;;;;28.62;49.15;100456.63;5036065;28;20091;-79
2021/09/10 11:15:56;;;;;;;6.53;5.07;;;;;;;28.77;48.44;100452.63;5029048;28;20052;-79
2021/09/10 11:18:23;;;;;;;5.25;3.83;;;;;;;28.95;47.19;100457.50;5034055;28;20033;-79
2021/09/10 11:20:52;;;;;;;5.43;4.22;;;;;;;28.98;46.72;100459.97;5054218;28;20067;-80